createdAt,value
2023-05-20T00:00:37.607Z,101319.09
2023-05-20T00:03:17.405Z,101318.29
2023-05-20T00:05:44.386Z,101314.84
2023-05-20T00:08:11.276Z,101308.98
2023-05-20T00:10:38.587Z,101313.27
2023-05-20T00:13:06.148Z,101313.42
2023-05-20T00:15:34.005Z,101309.79
2023-05-20T00:18:01.811Z,101308.45
2023-05-20T00:20:28.626Z,101310.36
2023-05-20T00:22:55.564Z,101313.02
2023-05-20T00:25:22.516Z,101309.41
2023-05-20T00:27:49.249Z,101312.25
2023-05-20T00:30:16.010Z,101312.61
2023-05-20T00:32:42.864Z,101307.95
2023-05-20T00:35:11.102Z,101308.94
2023-05-20T00:37:37.947Z,101308.56
2023-05-20T00:40:05.417Z,101310.70
2023-05-20T00:42:32.251Z,101318.06
2023-05-20T00:44:59.700Z,101317.09
2023-05-20T00:47:28.846Z,101315.23
2023-05-20T00:49:56.366Z,101307.30
2023-05-20T00:52:23.718Z,101310.09
2023-05-20T00:54:51.368Z,101311.02
2023-05-20T00:57:19.647Z,101312.88
2023-05-20T00:59:46.458Z,101310.54
2023-05-20T01:02:13.794Z,101310.52
2023-05-20T01:04:46.118Z,101308.17
2023-05-20T01:07:15.001Z,101306.21
2023-05-20T01:09:42.251Z,101301.57
2023-05-20T01:12:16.152Z,101303.21
2023-05-20T01:14:51.918Z,101305.94
2023-05-20T01:17:20.718Z,101304.36
2023-05-20T01:19:48.683Z,101307.61
2023-05-20T01:22:15.815Z,101314.10
2023-05-20T01:24:44.102Z,101315.83
2023-05-20T01:27:12.986Z,101309.63
2023-05-20T01:29:42.899Z,101317.64
2023-05-20T01:32:15.883Z,101309.02
2023-05-20T01:34:43.546Z,101311.12
2023-05-20T01:37:12.023Z,101311.64
2023-05-20T01:39:43.069Z,101314.69
2023-05-20T01:42:10.529Z,101313.25
2023-05-20T01:44:37.476Z,101309.05
2023-05-20T01:47:04.521Z,101310.48
2023-05-20T01:49:31.765Z,101311.29
2023-05-20T01:51:58.913Z,101314.52
2023-05-20T01:54:25.757Z,101307.73
2023-05-20T01:56:53.422Z,101313.95
2023-05-20T01:59:21.793Z,101316.73
2023-05-20T02:01:48.781Z,101317.09
2023-05-20T02:04:15.789Z,101313.92
2023-05-20T02:06:42.840Z,101313.02
2023-05-20T02:09:09.576Z,101314.84
2023-05-20T02:11:36.523Z,101318.48
2023-05-20T02:14:03.688Z,101313.99
2023-05-20T02:16:30.550Z,101315.50
2023-05-20T02:18:58.202Z,101313.71
2023-05-20T02:21:25.534Z,101315.11
2023-05-20T02:23:52.274Z,101316.55
2023-05-20T02:26:20.249Z,101314.47
2023-05-20T02:28:50.152Z,101319.48
2023-05-20T02:31:17.307Z,101318.63
2023-05-20T02:33:44.579Z,101325.84
2023-05-20T02:36:12.220Z,101325.76
2023-05-20T02:38:39.168Z,101325.92
2023-05-20T02:41:06.111Z,101324.72
2023-05-20T02:43:33.160Z,101325.77
2023-05-20T02:46:01.104Z,101322.71
2023-05-20T02:48:28.211Z,101327.35
2023-05-20T02:50:55.527Z,101326.55
2023-05-20T02:53:22.369Z,101329.19
2023-05-20T02:55:49.418Z,101331.80
2023-05-20T02:58:17.797Z,101336.83
2023-05-20T03:00:44.946Z,101338.23
2023-05-20T03:03:13.160Z,101342.69
2023-05-20T03:05:42.116Z,101344.00
2023-05-20T03:08:09.872Z,101341.73
2023-05-20T03:10:40.094Z,101341.50
2023-05-20T03:13:08.724Z,101338.21
2023-05-20T03:15:40.309Z,101343.09
2023-05-20T03:18:10.660Z,101339.61
2023-05-20T03:20:37.809Z,101337.26
2023-05-20T03:23:06.399Z,101342.73
2023-05-20T03:25:33.670Z,101345.55
2023-05-20T03:28:00.709Z,101346.37
2023-05-20T03:30:28.143Z,101350.27
2023-05-20T03:32:58.728Z,101349.70
2023-05-20T03:35:26.127Z,101349.48
2023-05-20T03:37:53.194Z,101346.66
2023-05-20T03:40:21.753Z,101344.36
2023-05-20T03:42:50.445Z,101346.18
2023-05-20T03:45:18.732Z,101347.25
2023-05-20T03:47:59.521Z,101348.81
2023-05-20T03:50:26.334Z,101355.98
2023-05-20T03:52:53.172Z,101354.79
2023-05-20T03:55:21.665Z,101352.90
2023-05-20T03:57:48.936Z,101351.72
2023-05-20T04:00:17.074Z,101353.89
2023-05-20T04:02:45.213Z,101350.36
2023-05-20T04:05:13.731Z,101354.69
2023-05-20T04:07:41.091Z,101356.38
2023-05-20T04:10:08.750Z,101359.52
2023-05-20T04:12:37.327Z,101357.36
2023-05-20T04:15:04.586Z,101356.70
2023-05-20T04:17:41.599Z,101360.30
2023-05-20T04:20:10.973Z,101358.63
2023-05-20T04:22:39.342Z,101364.61
2023-05-20T04:25:06.622Z,101360.30
2023-05-20T04:27:34.061Z,101361.73
2023-05-20T04:30:02.137Z,101363.65
2023-05-20T04:32:30.630Z,101359.73
2023-05-20T04:34:58.166Z,101359.60
2023-05-20T04:37:25.009Z,101360.30
2023-05-20T04:39:52.640Z,101361.15
2023-05-20T04:42:21.861Z,101357.15
2023-05-20T04:44:48.722Z,101361.46
2023-05-20T04:47:15.663Z,101362.98
2023-05-20T04:49:43.002Z,101365.66
2023-05-20T04:52:10.358Z,101366.19
2023-05-20T04:54:39.857Z,101371.36
2023-05-20T04:57:07.233Z,101366.38
2023-05-20T04:59:33.954Z,101362.85
2023-05-20T05:02:00.859Z,101367.11
2023-05-20T05:04:27.963Z,101366.92
2023-05-20T05:06:54.896Z,101371.06
2023-05-20T05:09:21.967Z,101368.39
2023-05-20T05:11:48.885Z,101365.13
2023-05-20T05:14:16.342Z,101368.04
2023-05-20T05:16:43.272Z,101369.02
2023-05-20T05:19:10.299Z,101366.88
2023-05-20T05:21:38.513Z,101366.02
2023-05-20T05:24:05.761Z,101367.67
2023-05-20T05:26:33.384Z,101365.23
2023-05-20T05:29:00.304Z,101365.90
2023-05-20T05:31:27.506Z,101365.81
2023-05-20T05:33:54.142Z,101362.75
2023-05-20T05:36:20.791Z,101361.78
2023-05-20T05:38:47.735Z,101359.27
2023-05-20T05:41:14.681Z,101365.08
2023-05-20T05:43:41.828Z,101363.56
2023-05-20T05:46:09.393Z,101365.54
2023-05-20T05:48:36.339Z,101364.86
2023-05-20T05:51:03.993Z,101366.19
2023-05-20T05:53:30.741Z,101368.92
2023-05-20T05:55:57.583Z,101370.48
2023-05-20T05:58:25.049Z,101370.62
2023-05-20T06:00:52.911Z,101372.48
2023-05-20T06:03:20.060Z,101376.34
2023-05-20T06:05:47.102Z,101376.27
2023-05-20T06:08:13.934Z,101375.30
2023-05-20T06:10:41.170Z,101375.09
2023-05-20T06:13:08.132Z,101374.52
2023-05-20T06:15:35.983Z,101379.44
2023-05-20T06:18:03.254Z,101372.98
2023-05-20T06:20:30.916Z,101370.23
2023-05-20T06:22:58.581Z,101374.47
2023-05-20T06:25:31.461Z,101374.05
2023-05-20T06:27:58.293Z,101371.90
2023-05-20T06:30:25.254Z,101370.05
2023-05-20T06:32:52.206Z,101374.30
2023-05-20T06:35:20.164Z,101367.50
2023-05-20T06:37:47.048Z,101365.77
2023-05-20T06:40:13.944Z,101366.89
2023-05-20T06:42:41.093Z,101370.73
2023-05-20T06:45:08.157Z,101372.33
2023-05-20T06:47:42.707Z,101371.23
2023-05-20T06:50:10.262Z,101375.70
2023-05-20T06:52:37.272Z,101378.86
2023-05-20T06:55:04.832Z,101369.55
2023-05-20T06:57:31.676Z,101369.74
2023-05-20T06:59:58.718Z,101364.58
2023-05-20T07:02:25.490Z,101367.01
2023-05-20T07:04:53.082Z,101366.55
2023-05-20T07:07:19.809Z,101369.20
2023-05-20T07:09:46.589Z,101370.02
2023-05-20T07:12:13.303Z,101372.99
2023-05-20T07:14:40.217Z,101373.34
2023-05-20T07:17:07.774Z,101372.69
2023-05-20T07:19:35.059Z,101372.77
2023-05-20T07:22:02.476Z,101374.92
2023-05-20T07:24:52.653Z,101373.52
2023-05-20T07:27:20.172Z,101373.50
2023-05-20T07:29:46.941Z,101367.53
2023-05-20T07:32:16.109Z,101365.48
2023-05-20T07:34:43.258Z,101368.27
2023-05-20T07:37:12.204Z,101369.28
2023-05-20T07:39:39.479Z,101363.59
2023-05-20T07:42:07.391Z,101367.02
2023-05-20T07:44:35.720Z,101372.37
2023-05-20T07:47:02.460Z,101371.59
2023-05-20T07:49:29.293Z,101363.83
2023-05-20T07:51:56.559Z,101366.05
2023-05-20T07:54:23.500Z,101367.90
2023-05-20T07:56:52.551Z,101368.16
2023-05-20T07:59:19.217Z,101368.34
2023-05-20T08:01:48.383Z,101366.31
2023-05-20T08:04:16.900Z,101368.59
2023-05-20T08:06:44.215Z,101370.00
2023-05-20T08:09:14.851Z,101367.20
2023-05-20T08:11:47.373Z,101364.71
2023-05-20T08:14:15.405Z,101367.59
2023-05-20T08:16:43.648Z,101366.43
2023-05-20T08:19:14.416Z,101368.56
2023-05-20T08:21:43.606Z,101365.96
2023-05-20T08:24:14.794Z,101366.52
2023-05-20T08:26:41.686Z,101359.48
2023-05-20T08:29:08.529Z,101361.14
2023-05-20T08:31:35.759Z,101363.05
2023-05-20T08:34:02.686Z,101361.74
2023-05-20T08:36:29.504Z,101358.50
2023-05-20T08:38:56.921Z,101360.83
2023-05-20T08:41:24.580Z,101356.45
2023-05-20T08:43:51.838Z,101362.11
2023-05-20T08:46:19.781Z,101367.43
2023-05-20T08:48:47.156Z,101366.62
2023-05-20T08:51:15.732Z,101365.52
2023-05-20T08:53:42.792Z,101363.02
2023-05-20T08:56:11.276Z,101367.06
2023-05-20T08:58:38.109Z,101366.65
2023-05-20T09:01:05.671Z,101367.80
2023-05-20T09:03:33.031Z,101364.27
2023-05-20T09:06:06.615Z,101362.15
2023-05-20T09:08:33.983Z,101361.89
2023-05-20T09:11:01.142Z,101356.20
2023-05-20T09:13:30.369Z,101353.41
2023-05-20T09:15:58.793Z,101355.14
2023-05-20T09:18:26.451Z,101360.89
2023-05-20T09:20:53.154Z,101359.06
2023-05-20T09:23:25.092Z,101359.53
2023-05-20T09:25:52.540Z,101354.85
2023-05-20T09:28:27.032Z,101351.08
2023-05-20T09:31:00.135Z,101349.98
2023-05-20T09:33:29.332Z,101344.81
2023-05-20T09:36:03.793Z,101343.30
2023-05-20T09:38:37.353Z,101345.52
2023-05-20T09:41:08.496Z,101343.00
2023-05-20T09:43:36.157Z,101339.95
2023-05-20T09:46:04.319Z,101340.27
2023-05-20T09:48:34.151Z,101334.52
2023-05-20T09:51:02.435Z,101327.21
2023-05-20T09:53:29.563Z,101328.92
2023-05-20T09:55:56.719Z,101324.89
2023-05-20T09:58:24.787Z,101319.91
2023-05-20T10:00:51.706Z,101319.19
2023-05-20T10:03:21.232Z,101312.10
2023-05-20T10:05:57.572Z,101309.02
2023-05-20T10:08:38.191Z,101299.70
2023-05-20T10:11:04.843Z,101292.69
2023-05-20T10:13:54.644Z,101289.85
2023-05-20T10:16:40.543Z,101284.95
2023-05-20T10:19:19.432Z,101283.85
2023-05-20T10:21:56.245Z,101281.45
2023-05-20T10:24:29.326Z,101278.42
2023-05-20T10:26:57.184Z,101270.20
2023-05-20T10:29:23.881Z,101269.54
2023-05-20T10:31:51.621Z,101267.30
2023-05-20T10:34:19.710Z,101267.77
2023-05-20T10:36:47.980Z,101263.30
2023-05-20T10:39:17.591Z,101259.23
2023-05-20T10:41:44.535Z,101261.27
2023-05-20T10:44:11.483Z,101255.10
2023-05-20T10:46:54.319Z,101246.06
2023-05-20T10:49:32.839Z,101246.64
2023-05-20T10:51:59.550Z,101240.20
2023-05-20T10:54:26.560Z,101236.42
2023-05-20T10:56:53.850Z,101231.13
2023-05-20T10:59:21.257Z,101229.35
2023-05-20T11:01:48.760Z,101227.98
2023-05-20T11:04:16.742Z,101223.99
2023-05-20T11:06:53.187Z,101219.02
2023-05-20T11:09:20.146Z,101208.98
2023-05-20T11:11:46.927Z,101207.66
2023-05-20T11:14:14.470Z,101202.56
2023-05-20T11:16:41.735Z,101188.92
2023-05-20T11:19:09.097Z,101186.31
2023-05-20T11:21:42.213Z,101187.13
2023-05-20T11:24:08.879Z,101183.31
2023-05-20T11:26:36.452Z,101171.39
2023-05-20T11:29:03.281Z,101170.01
2023-05-20T11:31:31.479Z,101168.47
2023-05-20T11:34:01.982Z,101162.90
2023-05-20T11:36:30.054Z,101158.61
2023-05-20T11:38:57.966Z,101151.16
2023-05-20T11:41:25.685Z,101147.59
2023-05-20T11:43:59.430Z,101144.94
2023-05-20T11:46:27.234Z,101140.77
2023-05-20T11:48:54.415Z,101145.09
2023-05-20T11:51:25.347Z,101142.23
2023-05-20T11:53:52.178Z,101141.73
2023-05-20T11:56:21.188Z,101135.20
2023-05-20T11:58:48.644Z,101131.15
2023-05-20T12:01:22.465Z,101132.17
2023-05-20T12:03:50.330Z,101124.98
2023-05-20T12:06:17.965Z,101125.91
2023-05-20T12:08:44.707Z,101123.98
2023-05-20T12:11:11.647Z,101122.35
2023-05-20T12:13:39.006Z,101122.98
2023-05-20T12:16:05.871Z,101123.83
2023-05-20T12:18:32.937Z,101120.73
2023-05-20T12:21:00.298Z,101124.20
2023-05-20T12:23:28.989Z,101123.30
2023-05-20T12:25:56.185Z,101123.64
2023-05-20T12:28:23.493Z,101119.89
2023-05-20T12:30:51.609Z,101118.77
2023-05-20T12:33:20.117Z,101114.70
2023-05-20T12:35:47.468Z,101106.08
2023-05-20T12:38:14.337Z,101098.21
2023-05-20T12:40:41.034Z,101091.30
2023-05-20T12:43:07.705Z,101085.30
2023-05-20T12:45:34.609Z,101081.66
2023-05-20T12:48:01.604Z,101085.19
2023-05-20T12:50:28.553Z,101087.66
2023-05-20T12:52:55.397Z,101085.06
2023-05-20T12:55:22.424Z,101081.77
2023-05-20T12:57:49.375Z,101076.86
2023-05-20T13:00:16.293Z,101081.55
2023-05-20T13:02:43.733Z,101097.55
2023-05-20T13:05:10.995Z,101094.17
2023-05-20T13:07:37.718Z,101096.48
2023-05-20T13:10:04.940Z,101093.67
2023-05-20T13:12:31.843Z,101083.63
2023-05-20T13:14:58.553Z,101076.67
2023-05-20T13:17:26.219Z,101065.54
2023-05-20T13:19:52.980Z,101068.73
2023-05-20T13:22:19.631Z,101065.05
2023-05-20T13:24:46.278Z,101063.88
2023-05-20T13:27:13.088Z,101063.23
2023-05-20T13:29:39.809Z,101056.48
2023-05-20T13:32:06.536Z,101056.78
2023-05-20T13:34:33.225Z,101053.56
2023-05-20T13:37:00.042Z,101051.82
2023-05-20T13:39:26.781Z,101050.77
2023-05-20T13:41:54.460Z,101049.73
2023-05-20T13:44:21.325Z,101044.73
2023-05-20T13:46:48.111Z,101039.08
2023-05-20T13:49:15.103Z,101037.63
2023-05-20T13:51:41.778Z,101031.02
2023-05-20T13:54:08.557Z,101035.70
2023-05-20T13:56:35.396Z,101027.41
2023-05-20T13:59:02.330Z,101027.61
2023-05-20T14:01:30.353Z,101024.87
2023-05-20T14:03:57.422Z,101020.42
2023-05-20T14:06:24.709Z,101017.68
2023-05-20T14:08:53.588Z,101014.95
2023-05-20T14:11:21.358Z,101020.39
2023-05-20T14:13:48.305Z,101018.23
2023-05-20T14:16:15.411Z,101013.95
2023-05-20T14:18:42.849Z,101027.14
2023-05-20T14:21:11.156Z,101076.66
2023-05-20T14:23:40.402Z,101097.31
2023-05-20T14:26:07.221Z,101090.50
2023-05-20T14:28:34.035Z,101083.31
2023-05-20T14:31:00.823Z,101072.96
2023-05-20T14:33:27.753Z,101066.89
2023-05-20T14:35:54.394Z,101061.95
2023-05-20T14:38:21.534Z,101056.90
2023-05-20T14:40:48.280Z,101056.50
2023-05-20T14:43:15.013Z,101057.30
2023-05-20T14:45:41.759Z,101050.55
2023-05-20T14:48:08.906Z,101052.73
2023-05-20T14:50:35.951Z,101046.10
2023-05-20T14:53:03.108Z,101044.66
2023-05-20T14:55:30.363Z,101041.52
2023-05-20T14:57:57.091Z,101041.45
2023-05-20T15:00:23.942Z,101034.86
2023-05-20T15:02:50.707Z,101030.64
2023-05-20T15:05:17.737Z,101031.79
2023-05-20T15:07:46.211Z,101034.98
2023-05-20T15:10:13.968Z,101042.08
2023-05-20T15:12:41.114Z,101051.20
2023-05-20T15:15:09.080Z,101056.24
2023-05-20T15:17:35.853Z,101058.45
2023-05-20T15:20:03.321Z,101052.22
2023-05-20T15:22:30.433Z,101046.47
2023-05-20T15:24:57.683Z,101046.23
2023-05-20T15:27:24.967Z,101061.31
2023-05-20T15:29:51.616Z,101061.79
2023-05-20T15:32:19.441Z,101046.34
2023-05-20T15:34:46.180Z,101041.71
2023-05-20T15:37:12.844Z,101043.02
2023-05-20T15:39:39.558Z,101036.68
2023-05-20T15:42:06.420Z,101028.67
2023-05-20T15:44:35.495Z,101027.13
2023-05-20T15:47:02.553Z,101024.94
2023-05-20T15:49:29.283Z,101023.77
2023-05-20T15:52:02.885Z,101024.50
2023-05-20T15:54:32.510Z,101024.00
2023-05-20T15:56:59.641Z,101027.94
2023-05-20T15:59:26.487Z,101026.50
2023-05-20T16:01:53.402Z,101031.40
2023-05-20T16:04:20.547Z,101031.34
2023-05-20T16:06:47.628Z,101029.42
2023-05-20T16:09:14.603Z,101034.13
2023-05-20T16:11:41.421Z,101031.13
2023-05-20T16:14:08.212Z,101031.84
2023-05-20T16:16:36.250Z,101031.36
2023-05-20T16:19:03.465Z,101031.52
2023-05-20T16:21:30.831Z,101035.15
2023-05-20T16:23:57.686Z,101038.67
2023-05-20T16:26:24.498Z,101038.75
2023-05-20T16:28:51.161Z,101039.27
2023-05-20T16:31:18.039Z,101037.79
2023-05-20T16:33:45.140Z,101038.45
2023-05-20T16:36:11.885Z,101041.94
2023-05-20T16:38:38.824Z,101041.81
2023-05-20T16:41:05.541Z,101046.46
2023-05-20T16:43:32.309Z,101052.97
2023-05-20T16:45:59.326Z,101053.44
2023-05-20T16:48:26.411Z,101055.36
2023-05-20T16:50:53.174Z,101057.37
2023-05-20T16:53:20.389Z,101062.88
2023-05-20T16:55:47.256Z,101062.17
2023-05-20T16:58:14.183Z,101069.69
2023-05-20T17:00:41.316Z,101070.86
2023-05-20T17:03:08.262Z,101072.52
2023-05-20T17:05:35.217Z,101077.35
2023-05-20T17:08:02.055Z,101076.41
2023-05-20T17:10:29.112Z,101075.17
2023-05-20T17:12:55.954Z,101073.29
2023-05-20T17:15:22.928Z,101072.91
2023-05-20T17:17:50.089Z,101074.27
2023-05-20T17:20:17.089Z,101075.52
2023-05-20T17:22:43.875Z,101070.52
2023-05-20T17:25:10.889Z,101071.27
2023-05-20T17:27:37.928Z,101069.79
2023-05-20T17:30:05.179Z,101070.77
2023-05-20T17:32:31.947Z,101069.98
2023-05-20T17:34:58.862Z,101067.60
2023-05-20T17:37:25.625Z,101071.52
2023-05-20T17:39:52.450Z,101075.09
2023-05-20T17:42:19.282Z,101076.08
2023-05-20T17:44:46.130Z,101075.21
2023-05-20T17:47:12.962Z,101073.73
2023-05-20T17:49:40.217Z,101074.70
2023-05-20T17:52:06.958Z,101074.92
2023-05-20T17:54:33.905Z,101075.71
2023-05-20T17:57:01.253Z,101078.21
2023-05-20T17:59:28.101Z,101077.92
2023-05-20T18:01:55.290Z,101075.80
2023-05-20T18:04:22.309Z,101078.96
2023-05-20T18:06:49.036Z,101073.86
2023-05-20T18:09:16.199Z,101079.11
2023-05-20T18:11:43.030Z,101079.55
2023-05-20T18:14:09.975Z,101088.69
2023-05-20T18:16:36.930Z,101090.23
2023-05-20T18:19:03.902Z,101094.50
2023-05-20T18:21:31.019Z,101097.79
2023-05-20T18:23:57.874Z,101100.16
2023-05-20T18:26:26.028Z,101102.96
2023-05-20T18:28:53.287Z,101106.80
2023-05-20T18:31:20.068Z,101105.86
2023-05-20T18:33:46.880Z,101104.28
2023-05-20T18:36:13.713Z,101099.52
2023-05-20T18:38:41.756Z,101099.34
2023-05-20T18:41:08.928Z,101107.23
2023-05-20T18:43:36.386Z,101113.09
2023-05-20T18:46:03.367Z,101114.16
2023-05-20T18:48:30.541Z,101114.72
2023-05-20T18:50:58.238Z,101107.98
2023-05-20T18:53:25.179Z,101107.45
2023-05-20T18:55:51.918Z,101100.98
2023-05-20T18:58:18.873Z,101105.14
2023-05-20T19:00:45.721Z,101101.87
2023-05-20T19:03:12.712Z,101105.09
2023-05-20T19:05:39.923Z,101102.51
2023-05-20T19:08:08.803Z,101101.14
2023-05-20T19:10:35.843Z,101101.34
2023-05-20T19:13:02.594Z,101098.30
2023-05-20T19:15:30.759Z,101092.10
2023-05-20T19:17:57.657Z,101090.11
2023-05-20T19:20:24.641Z,101088.18
2023-05-20T19:22:51.999Z,101086.05
2023-05-20T19:25:19.356Z,101084.73
2023-05-20T19:27:46.295Z,101081.38
2023-05-20T19:30:13.058Z,101079.55
2023-05-20T19:32:40.038Z,101089.54
2023-05-20T19:35:07.126Z,101082.14
2023-05-20T19:37:36.325Z,101089.67
2023-05-20T19:40:03.698Z,101089.77
2023-05-20T19:42:30.526Z,101088.50
2023-05-20T19:44:57.275Z,101085.27
2023-05-20T19:47:24.241Z,101083.39
2023-05-20T19:49:51.060Z,101081.21
2023-05-20T19:52:18.711Z,101077.84
2023-05-20T19:54:46.211Z,101080.05
2023-05-20T19:57:13.198Z,101085.37
2023-05-20T19:59:39.897Z,101083.85
2023-05-20T20:02:06.727Z,101083.63
2023-05-20T20:04:33.769Z,101075.13
2023-05-20T20:07:00.438Z,101072.83
2023-05-20T20:09:27.399Z,101070.90
2023-05-20T20:11:54.365Z,101070.25
2023-05-20T20:14:21.210Z,101069.07
2023-05-20T20:16:48.371Z,101082.40
2023-05-20T20:19:18.064Z,101084.95
2023-05-20T20:21:45.958Z,101082.48
2023-05-20T20:24:13.037Z,101074.27
2023-05-20T20:26:40.354Z,101078.45
2023-05-20T20:29:07.691Z,101079.70
2023-05-20T20:31:34.462Z,101074.34
2023-05-20T20:34:01.383Z,101073.59
2023-05-20T20:36:31.751Z,101075.92
2023-05-20T20:38:58.998Z,101070.13
2023-05-20T20:41:25.900Z,101063.64
2023-05-20T20:43:52.948Z,101060.77
2023-05-20T20:46:20.002Z,101063.95
2023-05-20T20:48:46.837Z,101059.77
2023-05-20T20:51:14.595Z,101057.27
2023-05-20T20:53:41.770Z,101062.28
2023-05-20T20:56:09.307Z,101064.59
2023-05-20T20:58:37.078Z,101063.28
2023-05-20T21:01:05.053Z,101051.99
2023-05-20T21:03:36.390Z,101044.96
2023-05-20T21:06:03.234Z,101047.36
2023-05-20T21:08:31.512Z,101049.67
2023-05-20T21:10:58.972Z,101059.66
2023-05-20T21:13:27.041Z,101049.73
2023-05-20T21:15:54.299Z,101048.49
2023-05-20T21:18:22.259Z,101054.13
2023-05-20T21:20:50.639Z,101058.96
2023-05-20T21:23:18.102Z,101058.20
2023-05-20T21:25:45.239Z,101057.55
2023-05-20T21:28:12.185Z,101063.84
2023-05-20T21:30:39.158Z,101066.13
2023-05-20T21:33:06.437Z,101070.59
2023-05-20T21:35:33.421Z,101070.79
2023-05-20T21:38:00.485Z,101071.75
2023-05-20T21:40:27.214Z,101073.89
2023-05-20T21:42:53.914Z,101073.05
2023-05-20T21:45:20.693Z,101081.32
2023-05-20T21:47:47.465Z,101077.13
2023-05-20T21:50:14.379Z,101074.63
2023-05-20T21:52:41.229Z,101068.71
2023-05-20T21:55:09.089Z,101067.75
2023-05-20T21:57:36.341Z,101071.63
2023-05-20T22:00:09.751Z,101072.42
2023-05-20T22:02:36.974Z,101070.08
2023-05-20T22:05:04.548Z,101071.34
2023-05-20T22:07:32.615Z,101068.74
2023-05-20T22:10:00.233Z,101070.19
2023-05-20T22:12:27.229Z,101067.15
2023-05-20T22:14:54.076Z,101064.16
2023-05-20T22:17:21.112Z,101064.98
2023-05-20T22:19:47.862Z,101061.64
2023-05-20T22:22:14.754Z,101065.06
2023-05-20T22:24:41.537Z,101059.56
2023-05-20T22:27:08.276Z,101059.59
2023-05-20T22:29:35.323Z,101062.64
2023-05-20T22:32:02.297Z,101066.58
2023-05-20T22:34:29.216Z,101065.89
2023-05-20T22:36:56.157Z,101064.34
2023-05-20T22:39:23.063Z,101069.07
2023-05-20T22:41:50.048Z,101073.27
2023-05-20T22:44:16.893Z,101071.86
2023-05-20T22:46:43.735Z,101066.92
2023-05-20T22:49:12.315Z,101073.14
2023-05-20T22:51:39.166Z,101077.64
2023-05-20T22:54:06.509Z,101077.40
2023-05-20T22:56:33.762Z,101073.32
2023-05-20T22:59:01.019Z,101074.86
2023-05-20T23:01:27.867Z,101081.97
2023-05-20T23:03:54.892Z,101085.38
2023-05-20T23:06:22.053Z,101086.02
2023-05-20T23:08:48.997Z,101087.21
2023-05-20T23:11:16.046Z,101088.32
2023-05-20T23:13:42.899Z,101090.71
2023-05-20T23:16:09.677Z,101087.44
2023-05-20T23:18:36.573Z,101087.85
2023-05-20T23:21:03.664Z,101089.77
2023-05-20T23:23:32.070Z,101083.79
2023-05-20T23:25:59.615Z,101086.00
2023-05-20T23:28:26.528Z,101088.80
2023-05-20T23:30:54.062Z,101090.92
2023-05-20T23:33:25.036Z,101089.42
2023-05-20T23:35:52.558Z,101089.39
2023-05-20T23:38:19.410Z,101086.14
2023-05-20T23:40:53.411Z,101080.64
2023-05-20T23:43:32.236Z,101083.45
2023-05-20T23:45:59.045Z,101082.91
2023-05-20T23:48:26.128Z,101083.95
2023-05-20T23:50:52.866Z,101079.02
2023-05-20T23:53:20.115Z,101076.42
2023-05-20T23:55:49.008Z,101074.89
2023-05-20T23:58:16.260Z,101075.70
